Time;durP1;ratioP1;P1;durP2;ratioP2;P2;SDS_P1;SDS_P2;PMS_P1;PMS_P2;Temp;Humidity;BMP_temperature;BMP_pressure;BME280_temperature;BME280_humidity;BME280_pressure;Samples;Min_cycle;Max_cycle;Signal;HPM_P1;HPM_P2
2023/03/13 00:01:44;;;;;;;;;;;7.32;19.67;;;;;;2668219;76;20488;-91
2023/03/13 00:05:12;;;;;;;;;;;7.24;19.44;;;;;;2669015;76;20438;-92
2023/03/13 00:08:48;;;;;;;;;;;7.14;19.41;;;;;;2669546;76;20443;-91
2023/03/13 00:12:20;;;;;;;;;;;7.11;19.33;;;;;;2670886;76;20301;-91
2023/03/13 00:15:48;;;;;;;;;;;7.03;19.44;;;;;;2669948;76;20432;-91
2023/03/13 00:19:16;;;;;;;;;;;7.00;19.40;;;;;;2670305;76;20342;-90
2023/03/13 00:22:44;;;;;;;;;;;6.96;19.34;;;;;;2669864;76;20447;-91
2023/03/13 00:26:12;;;;;;;;;;;6.91;19.19;;;;;;2671109;76;20417;-91
2023/03/13 00:29:40;;;;;;;;;;;6.87;19.05;;;;;;2670512;76;20451;-91
2023/03/13 00:33:08;;;;;;;;;;;6.78;18.73;;;;;;2670334;76;20424;-91
2023/03/13 00:36:37;;;;;;;;;;;6.70;18.51;;;;;;2670626;76;20361;-91
2023/03/13 00:40:07;;;;;;;;;;;6.63;18.41;;;;;;2670983;76;20865;-91
2023/03/13 00:43:36;;;;;;;;;;;6.55;18.42;;;;;;2669527;76;20534;-92
2023/03/13 00:47:05;;;;;;;;;;;6.50;18.52;;;;;;2670003;76;20453;-92
2023/03/13 00:54:13;;;;;;;;;;;6.38;18.26;;;;;;2670452;76;20435;-92
2023/03/13 00:57:41;;;;;;;;;;;6.33;18.29;;;;;;2670010;76;20419;-93
2023/03/13 01:01:12;;;;;;;;;;;6.28;18.28;;;;;;2670365;76;20423;-92
2023/03/13 01:04:40;;;;;;;;;;;6.24;18.19;;;;;;2669775;76;21307;-92
2023/03/13 01:08:08;;;;;;;;;;;6.21;18.15;;;;;;2668384;76;20907;-91
2023/03/13 01:11:36;;;;;;;;;;;6.14;18.06;;;;;;2670550;76;20865;-91
2023/03/13 01:15:04;;;;;;;;;;;6.14;17.97;;;;;;2669787;76;20889;-92
2023/03/13 01:18:32;;;;;;;;;;;6.11;17.99;;;;;;2670312;76;20441;-92
2023/03/13 01:22:01;;;;;;;;;;;6.05;18.06;;;;;;2670130;76;20482;-92
2023/03/13 01:25:29;;;;;;;;;;;6.02;17.87;;;;;;2670382;76;20422;-92
2023/03/13 01:28:57;;;;;;;;;;;5.97;17.65;;;;;;2669732;76;20327;-90
2023/03/13 01:32:25;;;;;;;;;;;5.94;17.51;;;;;;2670127;76;20312;-93
2023/03/13 01:35:53;;;;;;;;;;;5.89;17.40;;;;;;2670576;76;20432;-93
2023/03/13 01:39:21;;;;;;;;;;;5.79;17.30;;;;;;2670832;76;20425;-93
2023/03/13 01:42:49;;;;;;;;;;;5.77;17.22;;;;;;2670673;76;20319;-93
2023/03/13 01:46:31;;;;;;;;;;;5.70;17.27;;;;;;2670606;76;20779;-92
2023/03/13 01:49:59;;;;;;;;;;;5.68;17.21;;;;;;2670095;76;20316;-91
2023/03/13 01:53:28;;;;;;;;;;;5.63;17.35;;;;;;2671344;76;20434;-92
2023/03/13 01:56:56;;;;;;;;;;;5.63;17.36;;;;;;2670933;76;20880;-92
2023/03/13 02:00:24;;;;;;;;;;;5.67;17.80;;;;;;2670247;76;20516;-92
2023/03/13 02:03:52;;;;;;;;;;;5.77;18.23;;;;;;2667851;76;20460;-90
2023/03/13 02:07:20;;;;;;;;;;;5.85;18.49;;;;;;2668096;76;20723;-90
2023/03/13 02:10:48;;;;;;;;;;;5.93;18.80;;;;;;2669981;76;20494;-91
2023/03/13 02:14:16;;;;;;;;;;;6.00;18.89;;;;;;2669590;76;20307;-91
2023/03/13 02:17:44;;;;;;;;;;;6.05;18.92;;;;;;2668296;76;20424;-90
2023/03/13 02:21:12;;;;;;;;;;;6.06;18.88;;;;;;2669070;76;20436;-90
2023/03/13 02:24:44;;;;;;;;;;;6.08;18.96;;;;;;2669630;76;20452;-90
2023/03/13 02:28:12;;;;;;;;;;;6.06;18.95;;;;;;2668724;76;20474;-90
2023/03/13 02:31:40;;;;;;;;;;;6.10;19.02;;;;;;2668745;76;20472;-90
2023/03/13 02:35:08;;;;;;;;;;;6.14;19.29;;;;;;2669647;76;20410;-89
2023/03/13 02:38:36;;;;;;;;;;;6.15;19.40;;;;;;2669199;76;20463;-90
2023/03/13 02:42:04;;;;;;;;;;;6.22;19.47;;;;;;2668410;76;20558;-90
2023/03/13 02:45:32;;;;;;;;;;;6.23;19.58;;;;;;2669057;76;20460;-90
2023/03/13 02:49:00;;;;;;;;;;;6.28;19.75;;;;;;2668653;76;20357;-90
2023/03/13 02:52:29;;;;;;;;;;;6.36;19.84;;;;;;2669464;76;20943;-90
2023/03/13 02:55:57;;;;;;;;;;;6.36;19.95;;;;;;2667944;76;20487;-89
2023/03/13 02:59:25;;;;;;;;;;;6.40;20.07;;;;;;2669204;76;20479;-90
2023/03/13 03:02:54;;;;;;;;;;;6.45;20.18;;;;;;2668602;76;20411;-90
2023/03/13 03:06:22;;;;;;;;;;;6.49;20.32;;;;;;2668271;76;20488;-89
2023/03/13 03:09:55;;;;;;;;;;;6.55;20.44;;;;;;2668763;76;20518;-90
2023/03/13 03:13:23;;;;;;;;;;;6.63;20.46;;;;;;2668567;76;20440;-90
2023/03/13 03:16:51;;;;;;;;;;;6.67;20.42;;;;;;2669480;76;20459;-90
2023/03/13 03:20:22;;;;;;;;;;;6.69;20.42;;;;;;2668852;76;20447;-89
2023/03/13 03:23:52;;;;;;;;;;;6.72;20.47;;;;;;2669774;76;20440;-90
2023/03/13 03:27:20;;;;;;;;;;;6.74;20.50;;;;;;2668821;76;20447;-91
2023/03/13 03:30:48;;;;;;;;;;;6.75;20.57;;;;;;2669251;76;20481;-91
2023/03/13 03:34:17;;;;;;;;;;;6.78;20.60;;;;;;2667770;76;20438;-91
2023/03/13 03:37:45;;;;;;;;;;;6.84;20.43;;;;;;2668467;76;20688;-90
2023/03/13 03:41:13;;;;;;;;;;;6.82;20.36;;;;;;2668566;76;20471;-90
2023/03/13 03:44:41;;;;;;;;;;;6.81;20.30;;;;;;2669233;76;20442;-90
2023/03/13 03:48:12;;;;;;;;;;;6.82;20.32;;;;;;2668636;76;20483;-90
2023/03/13 03:51:40;;;;;;;;;;;6.82;20.27;;;;;;2668532;76;20374;-91
2023/03/13 03:55:09;;;;;;;;;;;6.82;20.30;;;;;;2668194;76;20522;-91
2023/03/13 03:58:37;;;;;;;;;;;6.82;20.19;;;;;;2669543;76;20434;-91
2023/03/13 04:02:05;;;;;;;;;;;6.80;19.96;;;;;;2668122;76;20509;-91
2023/03/13 04:05:33;;;;;;;;;;;6.76;19.89;;;;;;2668593;76;20405;-91
2023/03/13 04:09:01;;;;;;;;;;;6.75;19.90;;;;;;2668693;76;20444;-91
2023/03/13 04:12:29;;;;;;;;;;;6.73;19.89;;;;;;2669468;76;20430;-91
2023/03/13 04:15:57;;;;;;;;;;;6.73;19.98;;;;;;2668712;76;20483;-91
2023/03/13 04:19:26;;;;;;;;;;;6.80;20.27;;;;;;2668928;76;20435;-92
2023/03/13 04:22:54;;;;;;;;;;;6.85;20.18;;;;;;2669222;76;20470;-91
2023/03/13 04:26:22;;;;;;;;;;;6.91;20.16;;;;;;2669742;76;20811;-91
2023/03/13 04:29:50;;;;;;;;;;;6.97;20.16;;;;;;2667673;76;20482;-90
2023/03/13 04:33:18;;;;;;;;;;;6.99;20.08;;;;;;2669268;76;20893;-91
2023/03/13 04:36:49;;;;;;;;;;;6.97;19.89;;;;;;2668787;76;20471;-90
2023/03/13 04:40:17;;;;;;;;;;;6.97;19.83;;;;;;2669247;76;20417;-91
2023/03/13 04:43:46;;;;;;;;;;;7.00;19.89;;;;;;2668445;76;21030;-90
2023/03/13 04:47:14;;;;;;;;;;;7.02;19.89;;;;;;2668438;76;20439;-89
2023/03/13 04:50:42;;;;;;;;;;;7.05;19.87;;;;;;2668592;76;20964;-91
2023/03/13 04:54:10;;;;;;;;;;;7.07;19.93;;;;;;2668767;76;20482;-91
2023/03/13 04:57:38;;;;;;;;;;;7.12;19.93;;;;;;2669442;76;20443;-91
2023/03/13 05:01:06;;;;;;;;;;;7.19;19.79;;;;;;2668372;76;20530;-89
2023/03/13 05:04:34;;;;;;;;;;;7.24;19.83;;;;;;2668459;76;20420;-90
2023/03/13 05:08:03;;;;;;;;;;;7.31;19.87;;;;;;2669431;76;20424;-90
2023/03/13 05:11:32;;;;;;;;;;;7.40;19.92;;;;;;2668263;76;20450;-91
2023/03/13 05:15:00;;;;;;;;;;;7.46;19.80;;;;;;2669278;76;20956;-92
2023/03/13 05:18:28;;;;;;;;;;;7.50;19.81;;;;;;2669105;76;20475;-91
2023/03/13 05:21:56;;;;;;;;;;;7.58;19.71;;;;;;2668981;76;20332;-91
2023/03/13 05:25:24;;;;;;;;;;;7.63;19.68;;;;;;2669711;76;20459;-91
2023/03/13 05:28:52;;;;;;;;;;;7.69;19.51;;;;;;2669207;76;20851;-91
2023/03/13 05:32:21;;;;;;;;;;;7.76;19.47;;;;;;2669177;76;20361;-91
2023/03/13 05:35:49;;;;;;;;;;;7.82;19.07;;;;;;2668015;76;20475;-90
2023/03/13 05:39:20;;;;;;;;;;;7.87;19.08;;;;;;2668912;76;20461;-90
2023/03/13 05:42:51;;;;;;;;;;;7.93;18.83;;;;;;2669954;76;20682;-92
2023/03/13 05:46:19;;;;;;;;;;;8.07;18.90;;;;;;2669367;76;20491;-91
2023/03/13 05:49:50;;;;;;;;;;;8.18;18.84;;;;;;2668984;76;20442;-91
2023/03/13 05:53:18;;;;;;;;;;;8.26;18.73;;;;;;2669066;76;20972;-91
2023/03/13 05:56:49;;;;;;;;;;;8.39;18.78;;;;;;2667261;76;20465;-90
2023/03/13 06:00:16;;;;;;;;;;;8.55;18.44;;;;;;2666349;76;20451;-91
2023/03/13 06:03:44;;;;;;;;;;;8.71;18.33;;;;;;2667173;76;20436;-91
2023/03/13 06:07:13;;;;;;;;;;;8.92;18.54;;;;;;2667541;76;20982;-89
2023/03/13 06:10:41;;;;;;;;;;;9.11;18.27;;;;;;2667433;76;20442;-89
2023/03/13 06:14:09;;;;;;;;;;;9.23;17.82;;;;;;2668406;76;20437;-89
2023/03/13 06:17:37;;;;;;;;;;;9.31;17.76;;;;;;2669838;76;20954;-88
2023/03/13 06:21:05;;;;;;;;;;;9.45;18.09;;;;;;2668367;76;20497;-88
2023/03/13 06:24:33;;;;;;;;;;;9.50;18.22;;;;;;2668907;76;21071;-90
2023/03/13 06:28:02;;;;;;;;;;;9.49;17.38;;;;;;2667645;76;20776;-90
2023/03/13 06:31:30;;;;;;;;;;;9.52;17.48;;;;;;2669282;76;20449;-91
2023/03/13 06:34:58;;;;;;;;;;;9.57;17.45;;;;;;2667060;76;20536;-92
2023/03/13 06:38:26;;;;;;;;;;;9.63;17.70;;;;;;2666874;76;20894;-92
2023/03/13 06:41:55;;;;;;;;;;;9.69;17.41;;;;;;2669287;76;20440;-93
2023/03/13 06:45:29;;;;;;;;;;;9.81;17.70;;;;;;2667923;76;20468;-92
2023/03/13 06:48:57;;;;;;;;;;;10.01;17.66;;;;;;2668894;76;20454;-93
2023/03/13 06:52:25;;;;;;;;;;;10.13;17.13;;;;;;2667971;76;20440;-92
2023/03/13 06:55:56;;;;;;;;;;;10.27;17.41;;;;;;2668792;76;20448;-92
2023/03/13 06:59:24;;;;;;;;;;;10.25;16.62;;;;;;2669051;76;20468;-92
2023/03/13 07:02:58;;;;;;;;;;;10.29;16.87;;;;;;2668890;76;20488;-92
2023/03/13 07:06:26;;;;;;;;;;;10.27;16.99;;;;;;2669517;76;20430;-92
2023/03/13 07:09:54;;;;;;;;;;;10.29;16.94;;;;;;2668113;76;20443;-93
2023/03/13 07:13:23;;;;;;;;;;;10.30;17.19;;;;;;2667691;76;20356;-92
2023/03/13 07:16:54;;;;;;;;;;;10.37;16.92;;;;;;2668384;76;20446;-93
2023/03/13 07:20:22;;;;;;;;;;;10.51;16.91;;;;;;2669159;76;20716;-92
2023/03/13 07:23:50;;;;;;;;;;;10.60;16.38;;;;;;2668153;76;21622;-93
2023/03/13 07:27:19;;;;;;;;;;;10.71;16.31;;;;;;2669562;76;20471;-90
2023/03/13 07:30:48;;;;;;;;;;;10.83;16.19;;;;;;2668872;76;20438;-92
2023/03/13 07:34:16;;;;;;;;;;;10.90;16.32;;;;;;2668743;76;20464;-92
2023/03/13 07:37:44;;;;;;;;;;;10.80;16.31;;;;;;2668566;76;20974;-92
2023/03/13 07:41:12;;;;;;;;;;;10.71;15.80;;;;;;2669851;76;20459;-92
2023/03/13 07:44:46;;;;;;;;;;;10.63;16.42;;;;;;2670527;76;20452;-92
2023/03/13 07:48:15;;;;;;;;;;;10.68;16.59;;;;;;2669420;76;20447;-93
2023/03/13 07:51:46;;;;;;;;;;;11.00;16.53;;;;;;2668335;76;20544;-93
2023/03/13 07:55:15;;;;;;;;;;;11.64;16.47;;;;;;2668528;76;20432;-92
2023/03/13 07:58:46;;;;;;;;;;;12.44;15.00;;;;;;2668959;76;20839;-92
2023/03/13 08:02:15;;;;;;;;;;;12.79;14.49;;;;;;2669305;76;20593;-89
2023/03/13 08:05:43;;;;;;;;;;;12.93;13.77;;;;;;2668547;76;20901;-89
2023/03/13 08:09:12;;;;;;;;;;;13.35;13.49;;;;;;2667702;76;20471;-89
2023/03/13 08:12:40;;;;;;;;;;;13.79;13.49;;;;;;2669198;76;20470;-89
2023/03/13 08:16:08;;;;;;;;;;;14.13;13.02;;;;;;2669770;76;20428;-86
2023/03/13 08:19:37;;;;;;;;;;;14.36;11.81;;;;;;2667371;76;20442;-88
2023/03/13 08:23:05;;;;;;;;;;;14.55;11.29;;;;;;2670998;76;20728;-90
2023/03/13 08:26:33;;;;;;;;;;;14.53;11.36;;;;;;2669521;76;20587;-88
2023/03/13 08:30:01;;;;;;;;;;;14.37;11.85;;;;;;2666913;76;20754;-88
2023/03/13 08:33:29;;;;;;;;;;;14.47;11.94;;;;;;2668211;76;20345;-87
2023/03/13 08:36:57;;;;;;;;;;;14.51;10.27;;;;;;2669657;76;20430;-88
2023/03/13 08:40:25;;;;;;;;;;;14.64;11.19;;;;;;2670283;76;20415;-89
2023/03/13 08:43:54;;;;;;;;;;;14.78;11.14;;;;;;2669663;76;20404;-89
2023/03/13 08:47:22;;;;;;;;;;;14.91;10.72;;;;;;2669189;76;20418;-88
2023/03/13 08:50:50;;;;;;;;;;;14.96;10.56;;;;;;2667950;76;20423;-88
2023/03/13 08:54:21;;;;;;;;;;;14.87;9.79;;;;;;2669714;76;20426;-89
2023/03/13 08:57:49;;;;;;;;;;;14.86;8.98;;;;;;2668819;76;20397;-89
2023/03/13 09:01:17;;;;;;;;;;;15.17;9.30;;;;;;2665323;76;20645;-88
2023/03/13 09:04:46;;;;;;;;;;;15.71;6.27;;;;;;2667775;76;20486;-90
2023/03/13 09:08:14;;;;;;;;;;;16.46;7.02;;;;;;2667850;76;20446;-90
2023/03/13 09:11:42;;;;;;;;;;;16.49;-0.54;;;;;;2668282;76;20473;-91
2023/03/13 09:15:10;;;;;;;;;;;16.17;-2.82;;;;;;2668889;76;20412;-90
2023/03/13 09:18:38;;;;;;;;;;;16.24;-3.55;;;;;;2669000;76;20718;-89
2023/03/13 09:22:08;;;;;;;;;;;16.91;-1.50;;;;;;2668742;76;20648;-90
2023/03/13 09:25:36;;;;;;;;;;;17.43;-1.18;;;;;;2670382;76;20404;-90
2023/03/13 09:29:04;;;;;;;;;;;17.41;-1.47;;;;;;2668936;76;20936;-89
2023/03/13 09:32:32;;;;;;;;;;;17.22;-1.34;;;;;;2670325;76;20452;-90
2023/03/13 09:36:00;;;;;;;;;;;16.90;0.00;;;;;;2669452;76;20414;-88
2023/03/13 09:39:28;;;;;;;;;;;16.72;0.87;;;;;;2669407;76;21224;-89
2023/03/13 09:42:57;;;;;;;;;;;16.55;1.03;;;;;;2669321;76;20740;-90
2023/03/13 09:46:25;;;;;;;;;;;16.41;0.50;;;;;;2669208;76;20470;-90
2023/03/13 09:49:58;;;;;;;;;;;16.39;0.05;;;;;;2667378;76;20339;-90
2023/03/13 09:53:23;;;;;;;;;;;16.80;-3.70;;;;;;2669023;76;20457;-90
2023/03/13 09:56:51;;;;;;;;;;;17.38;-2.97;;;;;;2669427;76;20313;-87
2023/03/13 10:00:21;;;;;;;;;;;17.79;-4.99;;;;;;2669085;76;20453;-89
2023/03/13 10:03:49;;;;;;;;;;;18.02;-5.04;;;;;;2668247;76;20460;-89
2023/03/13 10:07:19;;;;;;;;;;;18.05;117.91;;;;;;2670222;76;20433;-89
2023/03/13 10:10:47;;;;;;;;;;;18.00;116.23;;;;;;2670536;76;21507;-89
2023/03/13 10:14:15;;;;;;;;;;;18.36;117.35;;;;;;2671258;76;20448;-90
2023/03/13 10:17:43;;;;;;;;;;;18.18;115.77;;;;;;2669258;76;20405;-89
2023/03/13 10:21:13;;;;;;;;;;;18.13;115.67;;;;;;2669956;76;20432;-89
2023/03/13 10:24:41;;;;;;;;;;;17.88;115.22;;;;;;2669868;76;20438;-90
2023/03/13 10:28:09;;;;;;;;;;;17.84;113.92;;;;;;2670153;76;20424;-90
2023/03/13 10:31:37;;;;;;;;;;;18.53;115.16;;;;;;2669888;76;20429;-89
2023/03/13 10:35:06;;;;;;;;;;;19.17;115.31;;;;;;2669724;76;20433;-89
2023/03/13 10:38:35;;;;;;;;;;;18.93;112.20;;;;;;2669758;76;20319;-90
2023/03/13 10:42:03;;;;;;;;;;;19.53;113.03;;;;;;2669002;76;20451;-90
2023/03/13 10:45:31;;;;;;;;;;;19.79;113.96;;;;;;2669484;76;20431;-90
2023/03/13 10:48:59;;;;;;;;;;;19.41;112.90;;;;;;2669747;76;20408;-89
2023/03/13 10:52:27;;;;;;;;;;;19.28;113.23;;;;;;2668690;76;20555;-89
2023/03/13 10:55:57;;;;;;;;;;;18.92;112.88;;;;;;2668983;76;20465;-90
2023/03/13 10:59:25;;;;;;;;;;;18.98;112.76;;;;;;2668351;76;20450;-89
2023/03/13 11:02:53;;;;;;;;;;;18.77;112.93;;;;;;2668778;76;20410;-87
2023/03/13 11:06:22;;;;;;;;;;;18.77;113.88;;;;;;2668824;76;20901;-88
2023/03/13 11:09:50;;;;;;;;;;;18.65;114.09;;;;;;2668745;76;20486;-89
2023/03/13 11:13:18;;;;;;;;;;;18.38;114.23;;;;;;2670570;76;20402;-90
2023/03/13 11:16:46;;;;;;;;;;;18.05;114.22;;;;;;2669969;76;20451;-89
2023/03/13 11:20:14;;;;;;;;;;;17.82;114.79;;;;;;2669291;76;20767;-89
2023/03/13 11:23:42;;;;;;;;;;;17.80;115.16;;;;;;2669859;76;20443;-88
2023/03/13 11:27:10;;;;;;;;;;;18.11;115.78;;;;;;2669556;76;20383;-89
2023/03/13 11:30:38;;;;;;;;;;;18.23;115.10;;;;;;2669393;76;20312;-90
2023/03/13 11:34:06;;;;;;;;;;;18.21;114.74;;;;;;2669025;76;20411;-87
2023/03/13 11:37:35;;;;;;;;;;;18.44;115.04;;;;;;2669354;76;20406;-88
2023/03/13 11:41:03;;;;;;;;;;;18.56;115.72;;;;;;2670040;76;21013;-89
2023/03/13 11:44:31;;;;;;;;;;;18.23;114.13;;;;;;2670192;76;20305;-89
2023/03/13 11:47:59;;;;;;;;;;;18.28;114.41;;;;;;2668672;76;20605;-89
2023/03/13 11:51:28;;;;;;;;;;;18.34;114.26;;;;;;2669578;76;20852;-90
2023/03/13 11:54:56;;;;;;;;;;;18.54;113.93;;;;;;2669735;76;20902;-89
2023/03/13 11:58:24;;;;;;;;;;;18.78;113.24;;;;;;2669437;76;20451;-89
2023/03/13 12:01:52;;;;;;;;;;;19.12;113.29;;;;;;2666841;76;20342;-89
2023/03/13 12:05:20;;;;;;;;;;;18.68;112.11;;;;;;2667968;76;20341;-90
2023/03/13 12:08:48;;;;;;;;;;;18.59;113.14;;;;;;2669055;76;20436;-89
2023/03/13 12:12:16;;;;;;;;;;;18.59;113.50;;;;;;2667604;76;20803;-89
2023/03/13 12:15:44;;;;;;;;;;;18.44;113.29;;;;;;2666219;76;21022;-89
2023/03/13 12:19:12;;;;;;;;;;;18.71;113.67;;;;;;2669309;76;20953;-89
2023/03/13 12:22:41;;;;;;;;;;;18.76;112.80;;;;;;2670023;76;20478;-89
2023/03/13 12:26:09;;;;;;;;;;;18.79;112.48;;;;;;2668578;76;20486;-89
2023/03/13 12:29:37;;;;;;;;;;;19.01;112.69;;;;;;2669594;76;20408;-87
2023/03/13 12:33:05;;;;;;;;;;;19.13;111.75;;;;;;2668873;76;20467;-89
2023/03/13 12:36:33;;;;;;;;;;;19.30;111.29;;;;;;2670119;76;20296;-89
2023/03/13 12:40:03;;;;;;;;;;;19.39;111.55;;;;;;2669775;76;20430;-89
2023/03/13 12:43:31;;;;;;;;;;;19.40;111.32;;;;;;2670231;76;20407;-89
2023/03/13 12:46:59;;;;;;;;;;;19.13;111.23;;;;;;2670213;76;20447;-88
2023/03/13 12:50:27;;;;;;;;;;;19.06;111.44;;;;;;2670366;76;20442;-89
2023/03/13 12:53:55;;;;;;;;;;;19.12;111.77;;;;;;2670211;76;20310;-89
2023/03/13 12:57:24;;;;;;;;;;;19.25;111.84;;;;;;2669641;76;20435;-89
2023/03/13 13:00:52;;;;;;;;;;;19.54;112.45;;;;;;2668333;76;20442;-89
2023/03/13 13:04:20;;;;;;;;;;;19.66;112.50;;;;;;2669795;76;20396;-88
2023/03/13 13:07:48;;;;;;;;;;;19.60;112.29;;;;;;2669190;76;20506;-87
2023/03/13 13:11:16;;;;;;;;;;;19.75;112.47;;;;;;2669957;76;20906;-87
2023/03/13 13:14:44;;;;;;;;;;;20.09;112.26;;;;;;2669440;76;20449;-87
2023/03/13 13:18:13;;;;;;;;;;;20.05;111.69;;;;;;2668862;76;20450;-87
2023/03/13 13:21:41;;;;;;;;;;;20.15;111.23;;;;;;2669623;76;20448;-87
2023/03/13 13:25:09;;;;;;;;;;;20.66;111.23;;;;;;2669657;76;20781;-87
2023/03/13 13:28:38;;;;;;;;;;;20.99;109.46;;;;;;2668693;76;21205;-86
2023/03/13 13:32:07;;;;;;;;;;;21.44;109.28;;;;;;2669284;76;20351;-87
2023/03/13 13:35:35;;;;;;;;;;;21.49;109.26;;;;;;2669511;76;20417;-85
2023/03/13 13:39:03;;;;;;;;;;;21.39;108.94;;;;;;2669376;76;20585;-87
2023/03/13 13:42:31;;;;;;;;;;;21.50;109.26;;;;;;2668436;76;20414;-86
2023/03/13 13:45:59;;;;;;;;;;;21.95;109.20;;;;;;2668417;76;20745;-86
2023/03/13 13:49:28;;;;;;;;;;;21.69;108.68;;;;;;2667568;76;20827;-87
2023/03/13 13:52:56;;;;;;;;;;;21.08;108.97;;;;;;2667214;76;20437;-86
2023/03/13 13:56:24;;;;;;;;;;;20.40;109.26;;;;;;2668500;76;20427;-88
2023/03/13 13:59:52;;;;;;;;;;;20.17;110.20;;;;;;2669084;76;20811;-87
2023/03/13 14:03:20;;;;;;;;;;;20.12;111.29;;;;;;2669074;76;20419;-92
2023/03/13 14:06:54;;;;;;;;;;;20.17;111.13;;;;;;2668535;76;20822;-92
2023/03/13 14:10:26;;;;;;;;;;;20.31;111.46;;;;;;2669723;76;20480;-94
2023/03/13 14:14:08;;;;;;;;;;;20.36;111.58;;;;;;2668410;76;20490;-93
2023/03/13 14:17:31;;;;;;;;;;;20.51;111.65;;;;;;2669090;76;20375;-92
2023/03/13 14:20:59;;;;;;;;;;;20.72;111.79;;;;;;2668329;76;20427;-92
2023/03/13 14:24:32;;;;;;;;;;;20.86;111.68;;;;;;2668991;76;20857;-93
2023/03/13 14:28:01;;;;;;;;;;;20.89;111.55;;;;;;2669480;76;20866;-92
2023/03/13 14:31:32;;;;;;;;;;;20.80;111.13;;;;;;2668975;76;20339;-92
2023/03/13 14:35:03;;;;;;;;;;;20.92;111.69;;;;;;2667756;76;20432;-92
2023/03/13 14:38:31;;;;;;;;;;;20.94;111.69;;;;;;2667494;76;20474;-92
2023/03/13 14:42:02;;;;;;;;;;;20.92;111.64;;;;;;2667255;76;20456;-92
2023/03/13 14:45:30;;;;;;;;;;;21.06;111.88;;;;;;2667296;76;20432;-93
2023/03/13 14:48:58;;;;;;;;;;;21.25;111.10;;;;;;2666856;76;20421;-92
2023/03/13 14:52:26;;;;;;;;;;;21.40;110.71;;;;;;2668070;76;20898;-94
2023/03/13 14:55:55;;;;;;;;;;;21.68;110.52;;;;;;2668781;76;20365;-91
2023/03/13 14:59:26;;;;;;;;;;;21.95;110.46;;;;;;2667675;76;20917;-93
2023/03/13 15:02:54;;;;;;;;;;;21.99;109.41;;;;;;2668292;76;20463;-92
2023/03/13 15:06:23;;;;;;;;;;;21.89;109.26;;;;;;2668306;76;20836;-92
2023/03/13 15:09:51;;;;;;;;;;;21.70;109.76;;;;;;2668351;76;21016;-92
2023/03/13 15:13:20;;;;;;;;;;;21.58;109.84;;;;;;2668623;76;20466;-93
2023/03/13 15:16:53;;;;;;;;;;;21.49;110.10;;;;;;2667880;76;20333;-94
2023/03/13 15:20:21;;;;;;;;;;;21.58;110.22;;;;;;2668442;76;20444;-93
2023/03/13 15:23:50;;;;;;;;;;;21.70;109.79;;;;;;2668543;76;20300;-94
2023/03/13 15:27:26;;;;;;;;;;;22.11;108.80;;;;;;2667079;76;20479;-93
2023/03/13 15:30:55;;;;;;;;;;;23.15;107.60;;;;;;2667885;76;20446;-93
2023/03/13 15:34:34;;;;;;;;;;;23.54;106.40;;;;;;2667777;76;20450;-92
2023/03/13 15:38:01;;;;;;;;;;;24.16;105.44;;;;;;2668770;76;20459;-92
2023/03/13 15:41:42;;;;;;;;;;;27.54;100.79;;;;;;2668417;76;20436;-93
2023/03/13 15:45:09;;;;;;;;;;;26.63;100.29;;;;;;2666687;76;20768;-94
2023/03/13 15:48:50;;;;;;;;;;;24.62;102.99;;;;;;2668448;76;21148;-93
2023/03/13 15:52:23;;;;;;;;;;;23.58;104.79;;;;;;2668111;76;20464;-90
2023/03/13 15:55:51;;;;;;;;;;;22.41;106.34;;;;;;2668006;76;20405;-90
2023/03/13 15:59:25;;;;;;;;;;;25.47;103.56;;;;;;2667343;76;20412;-90
2023/03/13 16:02:53;;;;;;;;;;;29.39;97.58;;;;;;2667194;76;20827;-89
2023/03/13 16:06:31;;;;;;;;;;;32.18;92.16;;;;;;2668332;76;21032;-90
2023/03/13 16:09:58;;;;;;;;;;;31.23;89.66;;;;;;2667881;76;20995;-90
2023/03/13 16:13:32;;;;;;;;;;;26.34;97.42;;;;;;2667967;76;20483;-88
2023/03/13 16:17:00;;;;;;;;;;;23.91;101.77;;;;;;2667583;76;20446;-90
2023/03/13 16:20:29;;;;;;;;;;;22.54;104.14;;;;;;2668267;76;20415;-92
2023/03/13 16:23:57;;;;;;;;;;;21.42;105.16;;;;;;2666416;76;20998;-91
2023/03/13 16:27:33;;;;;;;;;;;20.54;106.08;;;;;;2666993;76;20714;-90
2023/03/13 16:31:01;;;;;;;;;;;19.98;106.65;;;;;;2667458;76;20452;-92
2023/03/13 16:34:29;;;;;;;;;;;19.54;107.14;;;;;;2668003;76;20490;-91
2023/03/13 16:37:58;;;;;;;;;;;19.21;107.47;;;;;;2671582;76;21635;-91
2023/03/13 16:41:27;;;;;;;;;;;18.87;107.96;;;;;;2666955;76;20539;-88
2023/03/13 16:45:05;;;;;;;;;;;18.68;108.18;;;;;;2668505;76;20375;-92
2023/03/13 16:48:32;;;;;;;;;;;18.41;108.41;;;;;;2666253;76;20523;-90
2023/03/13 16:52:00;;;;;;;;;;;18.20;108.91;;;;;;2664978;76;20508;-90
2023/03/13 16:55:29;;;;;;;;;;;17.98;109.11;;;;;;2667007;76;20957;-90
2023/03/13 16:58:57;;;;;;;;;;;17.82;109.36;;;;;;2665801;76;20520;-89
2023/03/13 17:02:27;;;;;;;;;;;17.58;109.89;;;;;;2667718;76;20460;-90
2023/03/13 17:05:58;;;;;;;;;;;17.22;110.58;;;;;;2667148;76;20454;-90
2023/03/13 17:09:27;;;;;;;;;;;16.87;111.37;;;;;;2668213;76;20906;-90
2023/03/13 17:12:56;;;;;;;;;;;16.57;112.07;;;;;;2668189;76;20455;-90
2023/03/13 17:16:24;;;;;;;;;;;16.27;112.75;;;;;;2668090;76;20505;-91
2023/03/13 17:19:52;;;;;;;;;;;15.95;113.39;;;;;;2668921;76;20415;-91
2023/03/13 17:23:20;;;;;;;;;;;15.73;113.69;;;;;;2668261;76;21166;-91
2023/03/13 17:26:50;;;;;;;;;;;15.49;114.67;;;;;;2667487;76;20482;-91
2023/03/13 17:30:18;;;;;;;;;;;15.30;114.68;;;;;;2668109;76;21052;-91
2023/03/13 17:33:46;;;;;;;;;;;15.09;115.38;;;;;;2668509;76;20974;-91
2023/03/13 17:37:15;;;;;;;;;;;14.93;115.66;;;;;;2665588;76;20494;-91
2023/03/13 17:40:43;;;;;;;;;;;14.83;116.11;;;;;;2667120;76;20443;-90
2023/03/13 17:44:11;;;;;;;;;;;14.69;116.15;;;;;;2666032;76;20466;-91
2023/03/13 17:47:39;;;;;;;;;;;14.55;115.91;;;;;;2667523;76;20398;-90
2023/03/13 17:51:07;;;;;;;;;;;14.39;117.00;;;;;;2664503;76;20506;-91
2023/03/13 17:54:35;;;;;;;;;;;14.29;116.92;;;;;;2666995;76;20483;-91
2023/03/13 17:58:11;;;;;;;;;;;14.13;116.83;;;;;;2665219;76;20512;-90
2023/03/13 18:01:36;;;;;;;;;;;13.98;116.71;;;;;;2667760;76;21103;-90
2023/03/13 18:05:07;;;;;;;;;;;13.88;116.63;;;;;;2666554;76;20389;-91
2023/03/13 18:08:35;;;;;;;;;;;13.77;116.60;;;;;;2667902;76;20443;-91
2023/03/13 18:12:03;;;;;;;;;;;13.68;116.82;;;;;;2664099;76;20410;-91
2023/03/13 18:15:31;;;;;;;;;;;13.62;116.80;;;;;;2664258;76;20954;-90
2023/03/13 18:18:59;;;;;;;;;;;13.52;116.70;;;;;;2665180;76;20485;-93
2023/03/13 18:22:27;;;;;;;;;;;13.44;116.84;;;;;;2664836;76;20452;-93
2023/03/13 18:25:57;;;;;;;;;;;13.34;117.10;;;;;;2667396;76;20852;-92
2023/03/13 18:29:28;;;;;;;;;;;13.27;116.96;;;;;;2663483;76;20862;-93
2023/03/13 18:32:58;;;;;;;;;;;13.18;117.03;;;;;;2667958;76;20437;-93
2023/03/13 18:36:27;;;;;;;;;;;13.15;117.32;;;;;;2666796;76;21219;-92
2023/03/13 18:39:56;;;;;;;;;;;13.11;117.19;;;;;;2665801;76;20449;-93
2023/03/13 18:43:24;;;;;;;;;;;13.09;117.18;;;;;;2666340;76;20384;-93
2023/03/13 18:46:55;;;;;;;;;;;13.03;117.13;;;;;;2667139;76;20446;-92
2023/03/13 18:50:24;;;;;;;;;;;12.94;117.19;;;;;;2667286;76;20500;-92
2023/03/13 18:53:55;;;;;;;;;;;12.90;117.21;;;;;;2667705;76;20823;-90
2023/03/13 18:57:24;;;;;;;;;;;12.85;117.21;;;;;;2667147;76;20475;-89
2023/03/13 19:00:52;;;;;;;;;;;12.79;117.15;;;;;;2667479;76;20436;-91
2023/03/13 19:04:23;;;;;;;;;;;12.74;117.25;;;;;;2666263;76;20436;-90
2023/03/13 19:07:53;;;;;;;;;;;12.74;117.40;;;;;;2666385;76;20451;-91
2023/03/13 19:11:21;;;;;;;;;;;12.73;117.37;;;;;;2667781;76;20884;-90
2023/03/13 19:14:49;;;;;;;;;;;12.73;117.25;;;;;;2668325;76;20872;-90
2023/03/13 19:18:21;;;;;;;;;;;12.66;117.17;;;;;;2667145;76;20460;-91
2023/03/13 19:21:49;;;;;;;;;;;12.63;117.12;;;;;;2665851;76;20444;-89
2023/03/13 19:25:17;;;;;;;;;;;12.57;117.04;;;;;;2667645;76;20466;-89
2023/03/13 19:28:48;;;;;;;;;;;12.49;116.97;;;;;;2667810;76;20915;-90
2023/03/13 19:32:20;;;;;;;;;;;12.40;116.93;;;;;;2667590;76;20868;-90
2023/03/13 19:35:51;;;;;;;;;;;12.34;116.99;;;;;;2667720;76;20468;-90
2023/03/13 19:39:22;;;;;;;;;;;12.33;117.05;;;;;;2667732;76;20471;-90
2023/03/13 19:42:50;;;;;;;;;;;12.29;117.07;;;;;;2666631;76;20488;-90
2023/03/13 19:46:19;;;;;;;;;;;12.27;117.21;;;;;;2666021;76;20588;-89
2023/03/13 19:49:49;;;;;;;;;;;12.25;117.27;;;;;;2667731;76;20930;-90
2023/03/13 19:53:16;;;;;;;;;;;12.16;117.29;;;;;;2668378;76;20800;-90
2023/03/13 19:56:45;;;;;;;;;;;12.16;117.59;;;;;;2668011;76;20426;-90
2023/03/13 20:00:13;;;;;;;;;;;12.08;117.50;;;;;;2666939;76;20528;-89
2023/03/13 20:03:41;;;;;;;;;;;12.01;117.53;;;;;;2668661;76;20443;-90
2023/03/13 20:07:09;;;;;;;;;;;11.97;117.56;;;;;;2667438;76;20433;-86
2023/03/13 20:10:37;;;;;;;;;;;11.90;117.61;;;;;;2667452;76;21525;-88
2023/03/13 20:14:05;;;;;;;;;;;11.82;117.63;;;;;;2668451;76;20475;-87
2023/03/13 20:17:33;;;;;;;;;;;11.72;117.71;;;;;;2667767;76;20471;-87